sensor_id;sensor_type;location;lat;lon;timestamp;P1;durP1;ratioP1;P2;durP2;ratioP2
58468;SDS011;44257;44.804;10.220;2023-12-20T00:01:38;6.22;;;3.70;;
58468;SDS011;44257;44.804;10.220;2023-12-20T00:04:04;8.32;;;4.00;;
58468;SDS011;44257;44.804;10.220;2023-12-20T00:06:31;6.60;;;3.83;;
58468;SDS011;44257;44.804;10.220;2023-12-20T00:08:57;17.70;;;7.35;;
58468;SDS011;44257;44.804;10.220;2023-12-20T00:11:23;7.20;;;3.45;;
58468;SDS011;44257;44.804;10.220;2023-12-20T00:13:49;6.10;;;3.60;;
58468;SDS011;44257;44.804;10.220;2023-12-20T00:16:15;6.80;;;3.50;;
58468;SDS011;44257;44.804;10.220;2023-12-20T00:18:41;6.38;;;4.00;;
58468;SDS011;44257;44.804;10.220;2023-12-20T00:21:07;7.10;;;4.03;;
58468;SDS011;44257;44.804;10.220;2023-12-20T00:23:33;6.65;;;3.90;;
58468;SDS011;44257;44.804;10.220;2023-12-20T00:25:59;6.72;;;3.65;;
58468;SDS011;44257;44.804;10.220;2023-12-20T00:28:25;6.68;;;3.75;;
58468;SDS011;44257;44.804;10.220;2023-12-20T00:30:51;6.30;;;3.70;;
58468;SDS011;44257;44.804;10.220;2023-12-20T00:33:17;6.15;;;3.47;;
58468;SDS011;44257;44.804;10.220;2023-12-20T00:35:48;7.90;;;3.67;;
58468;SDS011;44257;44.804;10.220;2023-12-20T00:38:14;4.72;;;3.17;;
58468;SDS011;44257;44.804;10.220;2023-12-20T00:40:40;5.70;;;3.10;;
58468;SDS011;44257;44.804;10.220;2023-12-20T00:43:08;5.13;;;3.05;;
58468;SDS011;44257;44.804;10.220;2023-12-20T00:45:34;5.85;;;2.70;;
58468;SDS011;44257;44.804;10.220;2023-12-20T00:47:59;6.75;;;3.08;;
58468;SDS011;44257;44.804;10.220;2023-12-20T00:50:25;6.82;;;2.50;;
58468;SDS011;44257;44.804;10.220;2023-12-20T00:52:51;4.97;;;2.50;;
58468;SDS011;44257;44.804;10.220;2023-12-20T00:55:17;4.88;;;2.65;;
58468;SDS011;44257;44.804;10.220;2023-12-20T00:57:43;4.43;;;2.50;;
58468;SDS011;44257;44.804;10.220;2023-12-20T01:00:09;5.25;;;2.60;;
58468;SDS011;44257;44.804;10.220;2023-12-20T01:02:35;5.05;;;2.50;;
58468;SDS011;44257;44.804;10.220;2023-12-20T01:05:01;4.95;;;2.35;;
58468;SDS011;44257;44.804;10.220;2023-12-20T01:07:28;4.47;;;2.60;;
58468;SDS011;44257;44.804;10.220;2023-12-20T01:09:54;5.43;;;2.55;;
58468;SDS011;44257;44.804;10.220;2023-12-20T01:12:19;7.32;;;2.40;;
58468;SDS011;44257;44.804;10.220;2023-12-20T01:14:45;4.30;;;2.25;;
58468;SDS011;44257;44.804;10.220;2023-12-20T01:17:12;5.60;;;3.20;;
58468;SDS011;44257;44.804;10.220;2023-12-20T01:19:37;6.50;;;2.40;;
58468;SDS011;44257;44.804;10.220;2023-12-20T01:22:03;4.32;;;2.15;;
58468;SDS011;44257;44.804;10.220;2023-12-20T01:24:29;5.13;;;2.53;;
58468;SDS011;44257;44.804;10.220;2023-12-20T01:26:55;5.28;;;2.55;;
58468;SDS011;44257;44.804;10.220;2023-12-20T01:29:21;4.95;;;2.42;;
58468;SDS011;44257;44.804;10.220;2023-12-20T01:31:47;6.45;;;2.60;;
58468;SDS011;44257;44.804;10.220;2023-12-20T01:34:13;4.85;;;2.60;;
58468;SDS011;44257;44.804;10.220;2023-12-20T01:36:38;4.43;;;2.50;;
58468;SDS011;44257;44.804;10.220;2023-12-20T01:39:04;3.45;;;2.30;;
58468;SDS011;44257;44.804;10.220;2023-12-20T01:41:30;4.88;;;2.17;;
58468;SDS011;44257;44.804;10.220;2023-12-20T01:43:56;3.88;;;2.30;;
58468;SDS011;44257;44.804;10.220;2023-12-20T01:46:22;3.80;;;2.10;;
58468;SDS011;44257;44.804;10.220;2023-12-20T01:48:48;4.78;;;2.30;;
58468;SDS011;44257;44.804;10.220;2023-12-20T01:51:14;4.72;;;2.13;;
58468;SDS011;44257;44.804;10.220;2023-12-20T01:53:40;5.00;;;2.50;;
58468;SDS011;44257;44.804;10.220;2023-12-20T01:56:07;6.20;;;2.97;;
58468;SDS011;44257;44.804;10.220;2023-12-20T01:58:36;4.20;;;2.85;;
58468;SDS011;44257;44.804;10.220;2023-12-20T02:01:08;6.90;;;2.90;;
58468;SDS011;44257;44.804;10.220;2023-12-20T02:03:35;6.53;;;3.15;;
58468;SDS011;44257;44.804;10.220;2023-12-20T02:06:02;7.32;;;3.33;;
58468;SDS011;44257;44.804;10.220;2023-12-20T02:08:29;5.03;;;2.60;;
58468;SDS011;44257;44.804;10.220;2023-12-20T02:10:55;6.30;;;3.75;;
58468;SDS011;44257;44.804;10.220;2023-12-20T02:13:21;4.90;;;2.75;;
58468;SDS011;44257;44.804;10.220;2023-12-20T02:15:47;4.78;;;2.90;;
58468;SDS011;44257;44.804;10.220;2023-12-20T02:18:13;4.82;;;2.85;;
58468;SDS011;44257;44.804;10.220;2023-12-20T02:20:41;6.38;;;2.92;;
58468;SDS011;44257;44.804;10.220;2023-12-20T02:23:07;6.28;;;3.03;;
58468;SDS011;44257;44.804;10.220;2023-12-20T02:25:33;4.90;;;2.70;;
58468;SDS011;44257;44.804;10.220;2023-12-20T02:27:59;5.72;;;3.15;;
58468;SDS011;44257;44.804;10.220;2023-12-20T02:30:25;5.72;;;2.95;;
58468;SDS011;44257;44.804;10.220;2023-12-20T02:32:51;6.65;;;3.10;;
58468;SDS011;44257;44.804;10.220;2023-12-20T02:35:18;5.65;;;2.85;;
58468;SDS011;44257;44.804;10.220;2023-12-20T02:37:44;6.00;;;3.10;;
58468;SDS011;44257;44.804;10.220;2023-12-20T02:40:10;6.80;;;3.50;;
58468;SDS011;44257;44.804;10.220;2023-12-20T02:42:36;6.45;;;3.65;;
58468;SDS011;44257;44.804;10.220;2023-12-20T02:45:02;7.97;;;3.85;;
58468;SDS011;44257;44.804;10.220;2023-12-20T02:47:28;5.78;;;3.20;;
58468;SDS011;44257;44.804;10.220;2023-12-20T02:49:55;6.45;;;3.30;;
58468;SDS011;44257;44.804;10.220;2023-12-20T02:52:21;6.38;;;3.58;;
58468;SDS011;44257;44.804;10.220;2023-12-20T02:54:49;5.63;;;3.20;;
58468;SDS011;44257;44.804;10.220;2023-12-20T02:57:14;8.30;;;3.42;;
58468;SDS011;44257;44.804;10.220;2023-12-20T02:59:40;5.78;;;3.00;;
58468;SDS011;44257;44.804;10.220;2023-12-20T03:02:06;5.57;;;3.17;;
58468;SDS011;44257;44.804;10.220;2023-12-20T03:04:32;5.43;;;3.45;;
58468;SDS011;44257;44.804;10.220;2023-12-20T03:06:58;5.10;;;2.95;;
58468;SDS011;44257;44.804;10.220;2023-12-20T03:09:24;6.85;;;3.58;;
58468;SDS011;44257;44.804;10.220;2023-12-20T03:11:50;6.18;;;3.97;;
58468;SDS011;44257;44.804;10.220;2023-12-20T03:14:16;6.90;;;3.50;;
58468;SDS011;44257;44.804;10.220;2023-12-20T03:16:41;6.30;;;4.03;;
58468;SDS011;44257;44.804;10.220;2023-12-20T03:19:11;7.80;;;4.88;;
58468;SDS011;44257;44.804;10.220;2023-12-20T03:21:37;7.13;;;4.45;;
58468;SDS011;44257;44.804;10.220;2023-12-20T03:24:03;7.82;;;4.60;;
58468;SDS011;44257;44.804;10.220;2023-12-20T03:26:29;6.32;;;4.22;;
58468;SDS011;44257;44.804;10.220;2023-12-20T03:28:55;7.47;;;4.63;;
58468;SDS011;44257;44.804;10.220;2023-12-20T03:31:21;7.70;;;5.03;;
58468;SDS011;44257;44.804;10.220;2023-12-20T03:33:47;9.70;;;4.63;;
58468;SDS011;44257;44.804;10.220;2023-12-20T03:36:13;11.70;;;4.78;;
58468;SDS011;44257;44.804;10.220;2023-12-20T03:38:38;7.60;;;4.32;;
58468;SDS011;44257;44.804;10.220;2023-12-20T03:41:05;10.57;;;4.07;;
58468;SDS011;44257;44.804;10.220;2023-12-20T03:43:32;6.78;;;3.80;;
58468;SDS011;44257;44.804;10.220;2023-12-20T03:45:58;7.65;;;4.55;;
58468;SDS011;44257;44.804;10.220;2023-12-20T03:48:25;7.95;;;3.70;;
58468;SDS011;44257;44.804;10.220;2023-12-20T03:50:51;5.30;;;3.60;;
58468;SDS011;44257;44.804;10.220;2023-12-20T03:53:17;8.30;;;4.00;;
58468;SDS011;44257;44.804;10.220;2023-12-20T03:55:43;9.73;;;4.53;;
58468;SDS011;44257;44.804;10.220;2023-12-20T03:58:09;6.75;;;4.05;;
58468;SDS011;44257;44.804;10.220;2023-12-20T04:00:34;10.05;;;4.03;;
58468;SDS011;44257;44.804;10.220;2023-12-20T04:03:00;7.10;;;3.45;;
58468;SDS011;44257;44.804;10.220;2023-12-20T04:05:26;6.32;;;3.60;;
58468;SDS011;44257;44.804;10.220;2023-12-20T04:07:52;7.47;;;3.63;;
58468;SDS011;44257;44.804;10.220;2023-12-20T04:10:18;6.78;;;3.88;;
58468;SDS011;44257;44.804;10.220;2023-12-20T04:12:44;6.07;;;4.00;;
58468;SDS011;44257;44.804;10.220;2023-12-20T04:15:09;8.23;;;3.65;;
58468;SDS011;44257;44.804;10.220;2023-12-20T04:17:37;6.97;;;4.18;;
58468;SDS011;44257;44.804;10.220;2023-12-20T04:20:03;8.05;;;4.15;;
58468;SDS011;44257;44.804;10.220;2023-12-20T04:22:29;7.68;;;4.05;;
58468;SDS011;44257;44.804;10.220;2023-12-20T04:24:55;5.65;;;3.50;;
58468;SDS011;44257;44.804;10.220;2023-12-20T04:27:21;6.63;;;3.60;;
58468;SDS011;44257;44.804;10.220;2023-12-20T04:29:47;6.95;;;3.75;;
58468;SDS011;44257;44.804;10.220;2023-12-20T04:32:13;5.55;;;3.17;;
58468;SDS011;44257;44.804;10.220;2023-12-20T04:34:38;8.52;;;3.65;;
58468;SDS011;44257;44.804;10.220;2023-12-20T04:37:04;7.20;;;3.20;;
58468;SDS011;44257;44.804;10.220;2023-12-20T04:39:30;6.07;;;3.35;;
58468;SDS011;44257;44.804;10.220;2023-12-20T04:41:56;5.20;;;3.38;;
58468;SDS011;44257;44.804;10.220;2023-12-20T04:44:22;8.02;;;3.53;;
58468;SDS011;44257;44.804;10.220;2023-12-20T04:46:48;6.38;;;3.78;;
58468;SDS011;44257;44.804;10.220;2023-12-20T04:49:14;9.93;;;4.03;;
58468;SDS011;44257;44.804;10.220;2023-12-20T04:51:40;8.35;;;3.80;;
58468;SDS011;44257;44.804;10.220;2023-12-20T04:54:06;6.38;;;3.67;;
58468;SDS011;44257;44.804;10.220;2023-12-20T04:56:32;7.47;;;3.60;;
58468;SDS011;44257;44.804;10.220;2023-12-20T04:58:58;6.10;;;3.80;;
58468;SDS011;44257;44.804;10.220;2023-12-20T05:01:23;7.03;;;3.83;;
58468;SDS011;44257;44.804;10.220;2023-12-20T05:03:49;7.32;;;3.65;;
58468;SDS011;44257;44.804;10.220;2023-12-20T05:06:15;5.60;;;3.60;;
58468;SDS011;44257;44.804;10.220;2023-12-20T05:08:41;7.00;;;4.10;;
58468;SDS011;44257;44.804;10.220;2023-12-20T05:11:07;7.32;;;4.03;;
58468;SDS011;44257;44.804;10.220;2023-12-20T05:13:33;9.07;;;4.18;;
58468;SDS011;44257;44.804;10.220;2023-12-20T05:15:58;12.07;;;5.40;;
58468;SDS011;44257;44.804;10.220;2023-12-20T05:18:24;14.68;;;5.40;;
58468;SDS011;44257;44.804;10.220;2023-12-20T05:20:50;12.43;;;5.13;;
58468;SDS011;44257;44.804;10.220;2023-12-20T05:23:17;7.25;;;4.43;;
58468;SDS011;44257;44.804;10.220;2023-12-20T05:25:43;10.02;;;4.97;;
58468;SDS011;44257;44.804;10.220;2023-12-20T05:28:09;8.00;;;5.18;;
58468;SDS011;44257;44.804;10.220;2023-12-20T05:30:35;8.77;;;5.80;;
58468;SDS011;44257;44.804;10.220;2023-12-20T05:33:00;8.05;;;5.30;;
58468;SDS011;44257;44.804;10.220;2023-12-20T05:35:26;9.82;;;5.18;;
58468;SDS011;44257;44.804;10.220;2023-12-20T05:37:52;12.70;;;5.03;;
58468;SDS011;44257;44.804;10.220;2023-12-20T05:40:18;8.48;;;4.65;;
58468;SDS011;44257;44.804;10.220;2023-12-20T05:42:44;8.35;;;5.20;;
58468;SDS011;44257;44.804;10.220;2023-12-20T05:45:10;8.32;;;4.30;;
58468;SDS011;44257;44.804;10.220;2023-12-20T05:47:36;7.95;;;3.83;;
58468;SDS011;44257;44.804;10.220;2023-12-20T05:50:02;8.48;;;3.85;;
58468;SDS011;44257;44.804;10.220;2023-12-20T05:52:29;7.82;;;4.22;;
58468;SDS011;44257;44.804;10.220;2023-12-20T05:54:55;6.95;;;4.35;;
58468;SDS011;44257;44.804;10.220;2023-12-20T05:57:23;6.25;;;4.03;;
58468;SDS011;44257;44.804;10.220;2023-12-20T05:59:49;6.07;;;3.83;;
58468;SDS011;44257;44.804;10.220;2023-12-20T06:02:14;12.65;;;4.07;;
58468;SDS011;44257;44.804;10.220;2023-12-20T06:04:43;9.18;;;3.97;;
58468;SDS011;44257;44.804;10.220;2023-12-20T06:07:12;6.88;;;3.65;;
58468;SDS011;44257;44.804;10.220;2023-12-20T06:09:39;7.55;;;3.35;;
58468;SDS011;44257;44.804;10.220;2023-12-20T06:12:07;6.57;;;3.35;;
58468;SDS011;44257;44.804;10.220;2023-12-20T06:14:36;5.78;;;3.53;;
58468;SDS011;44257;44.804;10.220;2023-12-20T06:17:02;8.48;;;3.38;;
58468;SDS011;44257;44.804;10.220;2023-12-20T06:19:28;6.80;;;3.42;;
58468;SDS011;44257;44.804;10.220;2023-12-20T06:21:54;8.95;;;3.40;;
58468;SDS011;44257;44.804;10.220;2023-12-20T06:24:20;5.70;;;3.10;;
58468;SDS011;44257;44.804;10.220;2023-12-20T06:26:46;5.55;;;3.05;;
58468;SDS011;44257;44.804;10.220;2023-12-20T06:29:12;7.47;;;3.58;;
58468;SDS011;44257;44.804;10.220;2023-12-20T06:31:38;5.80;;;2.90;;
58468;SDS011;44257;44.804;10.220;2023-12-20T06:34:04;8.25;;;4.22;;
58468;SDS011;44257;44.804;10.220;2023-12-20T06:36:30;11.82;;;4.15;;
58468;SDS011;44257;44.804;10.220;2023-12-20T06:38:55;11.10;;;4.03;;
58468;SDS011;44257;44.804;10.220;2023-12-20T06:41:21;12.65;;;4.20;;
58468;SDS011;44257;44.804;10.220;2023-12-20T06:43:49;10.05;;;4.43;;
58468;SDS011;44257;44.804;10.220;2023-12-20T06:46:16;10.40;;;5.35;;
58468;SDS011;44257;44.804;10.220;2023-12-20T06:48:42;10.40;;;5.15;;
58468;SDS011;44257;44.804;10.220;2023-12-20T06:51:10;9.27;;;4.60;;
58468;SDS011;44257;44.804;10.220;2023-12-20T06:53:38;7.65;;;3.67;;
58468;SDS011;44257;44.804;10.220;2023-12-20T06:56:03;8.65;;;4.38;;
58468;SDS011;44257;44.804;10.220;2023-12-20T06:58:29;9.30;;;3.75;;
58468;SDS011;44257;44.804;10.220;2023-12-20T07:00:55;13.40;;;4.53;;
58468;SDS011;44257;44.804;10.220;2023-12-20T07:03:21;13.43;;;4.72;;
58468;SDS011;44257;44.804;10.220;2023-12-20T07:05:47;11.68;;;5.35;;
58468;SDS011;44257;44.804;10.220;2023-12-20T07:08:13;11.27;;;5.07;;
58468;SDS011;44257;44.804;10.220;2023-12-20T07:10:40;6.65;;;3.17;;
58468;SDS011;44257;44.804;10.220;2023-12-20T07:13:06;8.07;;;2.80;;
58468;SDS011;44257;44.804;10.220;2023-12-20T07:15:33;9.52;;;2.80;;
58468;SDS011;44257;44.804;10.220;2023-12-20T07:17:59;5.30;;;2.40;;
58468;SDS011;44257;44.804;10.220;2023-12-20T07:20:25;5.03;;;2.50;;
58468;SDS011;44257;44.804;10.220;2023-12-20T07:22:51;4.70;;;2.60;;
58468;SDS011;44257;44.804;10.220;2023-12-20T07:25:17;4.47;;;2.97;;
58468;SDS011;44257;44.804;10.220;2023-12-20T07:27:43;6.75;;;2.78;;
58468;SDS011;44257;44.804;10.220;2023-12-20T07:30:09;5.10;;;2.58;;
58468;SDS011;44257;44.804;10.220;2023-12-20T07:32:35;7.32;;;3.45;;
58468;SDS011;44257;44.804;10.220;2023-12-20T07:35:01;6.90;;;3.30;;
58468;SDS011;44257;44.804;10.220;2023-12-20T07:37:28;5.60;;;3.15;;
58468;SDS011;44257;44.804;10.220;2023-12-20T07:39:54;4.53;;;2.83;;
58468;SDS011;44257;44.804;10.220;2023-12-20T07:42:20;5.03;;;2.92;;
58468;SDS011;44257;44.804;10.220;2023-12-20T07:44:47;8.07;;;3.50;;
58468;SDS011;44257;44.804;10.220;2023-12-20T07:47:13;5.13;;;3.13;;
58468;SDS011;44257;44.804;10.220;2023-12-20T07:49:42;6.15;;;3.30;;
58468;SDS011;44257;44.804;10.220;2023-12-20T07:52:08;6.78;;;3.30;;
58468;SDS011;44257;44.804;10.220;2023-12-20T07:54:35;5.65;;;3.35;;
58468;SDS011;44257;44.804;10.220;2023-12-20T07:57:01;7.07;;;3.35;;
58468;SDS011;44257;44.804;10.220;2023-12-20T07:59:27;8.77;;;3.42;;
58468;SDS011;44257;44.804;10.220;2023-12-20T08:01:53;8.38;;;4.68;;
58468;SDS011;44257;44.804;10.220;2023-12-20T08:04:19;8.18;;;3.75;;
58468;SDS011;44257;44.804;10.220;2023-12-20T08:06:45;9.68;;;4.88;;
58468;SDS011;44257;44.804;10.220;2023-12-20T08:09:10;9.15;;;4.50;;
58468;SDS011;44257;44.804;10.220;2023-12-20T08:11:36;14.38;;;5.43;;
58468;SDS011;44257;44.804;10.220;2023-12-20T08:14:03;11.73;;;6.13;;
58468;SDS011;44257;44.804;10.220;2023-12-20T08:16:29;9.43;;;5.30;;
58468;SDS011;44257;44.804;10.220;2023-12-20T08:18:55;10.63;;;5.55;;
58468;SDS011;44257;44.804;10.220;2023-12-20T08:21:21;8.70;;;5.03;;
58468;SDS011;44257;44.804;10.220;2023-12-20T08:23:47;11.05;;;5.80;;
58468;SDS011;44257;44.804;10.220;2023-12-20T08:26:14;9.98;;;5.57;;
58468;SDS011;44257;44.804;10.220;2023-12-20T08:28:46;10.40;;;5.13;;
58468;SDS011;44257;44.804;10.220;2023-12-20T08:31:15;10.00;;;4.90;;
58468;SDS011;44257;44.804;10.220;2023-12-20T08:33:43;9.63;;;4.97;;
58468;SDS011;44257;44.804;10.220;2023-12-20T08:36:09;7.40;;;4.20;;
58468;SDS011;44257;44.804;10.220;2023-12-20T08:38:36;10.88;;;4.55;;
58468;SDS011;44257;44.804;10.220;2023-12-20T08:41:02;12.27;;;4.18;;
58468;SDS011;44257;44.804;10.220;2023-12-20T08:43:30;7.25;;;3.85;;
58468;SDS011;44257;44.804;10.220;2023-12-20T08:45:57;8.45;;;3.67;;
58468;SDS011;44257;44.804;10.220;2023-12-20T08:48:23;11.20;;;3.67;;
58468;SDS011;44257;44.804;10.220;2023-12-20T08:50:49;7.25;;;3.40;;
58468;SDS011;44257;44.804;10.220;2023-12-20T08:53:16;9.25;;;3.50;;
58468;SDS011;44257;44.804;10.220;2023-12-20T08:55:43;7.53;;;3.65;;
58468;SDS011;44257;44.804;10.220;2023-12-20T08:58:09;8.93;;;2.95;;
58468;SDS011;44257;44.804;10.220;2023-12-20T09:00:35;6.93;;;3.25;;
58468;SDS011;44257;44.804;10.220;2023-12-20T09:03:01;5.03;;;2.80;;
58468;SDS011;44257;44.804;10.220;2023-12-20T09:05:27;4.82;;;2.70;;
58468;SDS011;44257;44.804;10.220;2023-12-20T09:07:53;6.75;;;3.10;;
58468;SDS011;44257;44.804;10.220;2023-12-20T09:10:19;8.23;;;3.45;;
58468;SDS011;44257;44.804;10.220;2023-12-20T09:12:48;5.95;;;2.72;;
58468;SDS011;44257;44.804;10.220;2023-12-20T09:15:14;7.22;;;3.13;;
58468;SDS011;44257;44.804;10.220;2023-12-20T09:17:40;10.70;;;3.50;;
58468;SDS011;44257;44.804;10.220;2023-12-20T09:20:07;7.97;;;3.55;;
58468;SDS011;44257;44.804;10.220;2023-12-20T09:22:33;7.30;;;2.85;;
58468;SDS011;44257;44.804;10.220;2023-12-20T09:24:59;5.72;;;3.03;;
58468;SDS011;44257;44.804;10.220;2023-12-20T09:27:27;6.45;;;3.80;;
58468;SDS011;44257;44.804;10.220;2023-12-20T09:29:53;6.88;;;3.90;;
58468;SDS011;44257;44.804;10.220;2023-12-20T09:32:19;9.05;;;3.72;;
58468;SDS011;44257;44.804;10.220;2023-12-20T09:34:47;9.10;;;3.80;;
58468;SDS011;44257;44.804;10.220;2023-12-20T09:37:13;8.73;;;3.92;;
58468;SDS011;44257;44.804;10.220;2023-12-20T09:39:39;10.45;;;3.92;;
58468;SDS011;44257;44.804;10.220;2023-12-20T09:42:06;5.85;;;3.40;;
58468;SDS011;44257;44.804;10.220;2023-12-20T09:44:32;6.88;;;3.42;;
58468;SDS011;44257;44.804;10.220;2023-12-20T09:47:02;12.85;;;3.75;;
58468;SDS011;44257;44.804;10.220;2023-12-20T09:49:29;5.55;;;3.17;;
58468;SDS011;44257;44.804;10.220;2023-12-20T09:51:56;7.15;;;3.63;;
58468;SDS011;44257;44.804;10.220;2023-12-20T09:54:22;6.60;;;3.50;;
58468;SDS011;44257;44.804;10.220;2023-12-20T09:56:49;9.88;;;3.70;;
58468;SDS011;44257;44.804;10.220;2023-12-20T09:59:15;9.90;;;3.85;;
58468;SDS011;44257;44.804;10.220;2023-12-20T10:01:41;7.53;;;4.15;;
58468;SDS011;44257;44.804;10.220;2023-12-20T10:04:09;6.15;;;3.42;;
58468;SDS011;44257;44.804;10.220;2023-12-20T10:06:41;9.05;;;3.67;;
58468;SDS011;44257;44.804;10.220;2023-12-20T10:09:08;6.53;;;3.58;;
58468;SDS011;44257;44.804;10.220;2023-12-20T10:11:38;6.18;;;3.58;;
58468;SDS011;44257;44.804;10.220;2023-12-20T10:14:05;10.63;;;4.22;;
58468;SDS011;44257;44.804;10.220;2023-12-20T10:16:31;7.57;;;3.92;;
58468;SDS011;44257;44.804;10.220;2023-12-20T10:18:58;9.25;;;4.03;;
58468;SDS011;44257;44.804;10.220;2023-12-20T10:21:26;7.75;;;4.35;;
58468;SDS011;44257;44.804;10.220;2023-12-20T10:23:55;9.68;;;5.10;;
58468;SDS011;44257;44.804;10.220;2023-12-20T10:26:22;11.85;;;5.65;;
58468;SDS011;44257;44.804;10.220;2023-12-20T10:28:50;10.48;;;5.18;;
58468;SDS011;44257;44.804;10.220;2023-12-20T10:31:26;14.20;;;5.13;;
58468;SDS011;44257;44.804;10.220;2023-12-20T10:33:55;7.57;;;4.70;;
58468;SDS011;44257;44.804;10.220;2023-12-20T10:36:25;8.13;;;4.55;;
58468;SDS011;44257;44.804;10.220;2023-12-20T10:38:52;7.95;;;4.63;;
58468;SDS011;44257;44.804;10.220;2023-12-20T10:41:26;13.15;;;4.90;;
58468;SDS011;44257;44.804;10.220;2023-12-20T10:44:03;8.77;;;4.95;;
58468;SDS011;44257;44.804;10.220;2023-12-20T10:46:33;7.40;;;4.25;;
58468;SDS011;44257;44.804;10.220;2023-12-20T10:48:59;18.13;;;4.93;;
58468;SDS011;44257;44.804;10.220;2023-12-20T10:51:28;16.05;;;5.53;;
58468;SDS011;44257;44.804;10.220;2023-12-20T10:53:56;22.63;;;6.88;;
58468;SDS011;44257;44.804;10.220;2023-12-20T10:56:22;13.73;;;5.53;;
58468;SDS011;44257;44.804;10.220;2023-12-20T10:58:51;10.80;;;4.55;;
58468;SDS011;44257;44.804;10.220;2023-12-20T11:01:18;9.30;;;4.20;;
58468;SDS011;44257;44.804;10.220;2023-12-20T11:03:51;7.70;;;4.25;;
58468;SDS011;44257;44.804;10.220;2023-12-20T11:06:26;7.05;;;4.07;;
58468;SDS011;44257;44.804;10.220;2023-12-20T11:14:30;8.90;;;4.78;;
58468;SDS011;44257;44.804;10.220;2023-12-20T11:17:13;9.50;;;4.25;;
58468;SDS011;44257;44.804;10.220;2023-12-20T11:22:27;7.32;;;4.18;;
58468;SDS011;44257;44.804;10.220;2023-12-20T11:25:08;7.93;;;4.07;;
58468;SDS011;44257;44.804;10.220;2023-12-20T11:27:42;5.72;;;4.00;;
58468;SDS011;44257;44.804;10.220;2023-12-20T11:30:08;6.30;;;4.03;;
58468;SDS011;44257;44.804;10.220;2023-12-20T11:32:35;6.53;;;4.10;;
58468;SDS011;44257;44.804;10.220;2023-12-20T11:37:37;12.80;;;3.95;;
58468;SDS011;44257;44.804;10.220;2023-12-20T11:40:12;9.60;;;4.95;;
58468;SDS011;44257;44.804;10.220;2023-12-20T11:42:42;8.98;;;4.75;;
58468;SDS011;44257;44.804;10.220;2023-12-20T11:45:10;6.50;;;3.75;;
58468;SDS011;44257;44.804;10.220;2023-12-20T11:47:40;9.95;;;4.63;;
58468;SDS011;44257;44.804;10.220;2023-12-20T11:50:10;6.18;;;3.08;;
58468;SDS011;44257;44.804;10.220;2023-12-20T11:52:36;7.00;;;3.92;;
58468;SDS011;44257;44.804;10.220;2023-12-20T11:55:03;10.00;;;3.40;;
58468;SDS011;44257;44.804;10.220;2023-12-20T11:57:29;8.50;;;3.80;;
58468;SDS011;44257;44.804;10.220;2023-12-20T11:59:56;8.55;;;3.15;;
58468;SDS011;44257;44.804;10.220;2023-12-20T12:02:22;8.93;;;3.97;;
58468;SDS011;44257;44.804;10.220;2023-12-20T12:04:49;10.00;;;5.80;;
58468;SDS011;44257;44.804;10.220;2023-12-20T12:07:18;12.35;;;7.35;;
58468;SDS011;44257;44.804;10.220;2023-12-20T12:09:44;15.38;;;8.98;;
58468;SDS011;44257;44.804;10.220;2023-12-20T12:12:11;15.60;;;10.80;;
58468;SDS011;44257;44.804;10.220;2023-12-20T12:14:38;23.73;;;18.50;;
58468;SDS011;44257;44.804;10.220;2023-12-20T12:17:12;21.42;;;13.70;;
58468;SDS011;44257;44.804;10.220;2023-12-20T12:19:39;17.38;;;11.13;;
58468;SDS011;44257;44.804;10.220;2023-12-20T12:22:06;19.17;;;9.90;;
58468;SDS011;44257;44.804;10.220;2023-12-20T12:24:45;12.57;;;9.85;;
58468;SDS011;44257;44.804;10.220;2023-12-20T12:27:15;20.17;;;11.45;;
58468;SDS011;44257;44.804;10.220;2023-12-20T12:29:42;14.30;;;11.00;;
58468;SDS011;44257;44.804;10.220;2023-12-20T12:32:29;18.20;;;11.43;;
58468;SDS011;44257;44.804;10.220;2023-12-20T12:34:55;17.92;;;10.88;;
58468;SDS011;44257;44.804;10.220;2023-12-20T12:37:22;13.60;;;10.32;;
58468;SDS011;44257;44.804;10.220;2023-12-20T12:39:49;15.73;;;10.32;;
58468;SDS011;44257;44.804;10.220;2023-12-20T12:42:15;16.52;;;10.70;;
58468;SDS011;44257;44.804;10.220;2023-12-20T12:44:41;15.25;;;10.55;;
58468;SDS011;44257;44.804;10.220;2023-12-20T12:47:07;20.05;;;10.45;;
58468;SDS011;44257;44.804;10.220;2023-12-20T12:49:33;17.25;;;11.57;;
58468;SDS011;44257;44.804;10.220;2023-12-20T12:51:59;18.17;;;12.20;;
58468;SDS011;44257;44.804;10.220;2023-12-20T12:54:25;19.98;;;11.55;;
58468;SDS011;44257;44.804;10.220;2023-12-20T12:56:51;18.17;;;12.23;;
58468;SDS011;44257;44.804;10.220;2023-12-20T12:59:18;17.35;;;12.07;;
58468;SDS011;44257;44.804;10.220;2023-12-20T13:01:44;16.85;;;11.82;;
58468;SDS011;44257;44.804;10.220;2023-12-20T13:04:10;17.05;;;11.45;;
58468;SDS011;44257;44.804;10.220;2023-12-20T13:06:39;15.77;;;11.27;;
58468;SDS011;44257;44.804;10.220;2023-12-20T13:09:07;17.23;;;12.17;;
58468;SDS011;44257;44.804;10.220;2023-12-20T13:11:34;22.70;;;12.80;;
58468;SDS011;44257;44.804;10.220;2023-12-20T13:14:01;17.83;;;12.30;;
58468;SDS011;44257;44.804;10.220;2023-12-20T13:16:28;16.25;;;11.70;;
58468;SDS011;44257;44.804;10.220;2023-12-20T13:18:54;18.98;;;11.15;;
58468;SDS011;44257;44.804;10.220;2023-12-20T13:21:21;18.45;;;11.85;;
58468;SDS011;44257;44.804;10.220;2023-12-20T13:23:47;20.08;;;11.88;;
58468;SDS011;44257;44.804;10.220;2023-12-20T13:26:13;16.95;;;11.50;;
58468;SDS011;44257;44.804;10.220;2023-12-20T13:28:39;19.40;;;11.68;;
58468;SDS011;44257;44.804;10.220;2023-12-20T13:31:05;18.25;;;12.20;;
58468;SDS011;44257;44.804;10.220;2023-12-20T13:33:31;17.33;;;11.55;;
58468;SDS011;44257;44.804;10.220;2023-12-20T13:35:57;16.48;;;11.55;;
58468;SDS011;44257;44.804;10.220;2023-12-20T13:38:23;16.70;;;11.43;;
58468;SDS011;44257;44.804;10.220;2023-12-20T13:40:49;21.05;;;11.45;;
58468;SDS011;44257;44.804;10.220;2023-12-20T13:43:15;22.85;;;11.95;;
58468;SDS011;44257;44.804;10.220;2023-12-20T13:45:45;16.02;;;11.18;;
58468;SDS011;44257;44.804;10.220;2023-12-20T13:48:12;18.42;;;11.40;;
58468;SDS011;44257;44.804;10.220;2023-12-20T13:50:38;17.20;;;11.30;;
58468;SDS011;44257;44.804;10.220;2023-12-20T13:53:04;15.07;;;9.90;;
58468;SDS011;44257;44.804;10.220;2023-12-20T13:55:30;15.93;;;10.90;;
58468;SDS011;44257;44.804;10.220;2023-12-20T13:57:56;17.45;;;11.35;;
58468;SDS011;44257;44.804;10.220;2023-12-20T14:00:22;16.75;;;11.43;;
58468;SDS011;44257;44.804;10.220;2023-12-20T14:02:49;18.02;;;11.00;;
58468;SDS011;44257;44.804;10.220;2023-12-20T14:05:15;18.17;;;11.82;;
58468;SDS011;44257;44.804;10.220;2023-12-20T14:07:45;32.03;;;13.20;;
58468;SDS011;44257;44.804;10.220;2023-12-20T14:10:11;15.02;;;11.27;;
58468;SDS011;44257;44.804;10.220;2023-12-20T14:12:40;15.63;;;10.23;;
58468;SDS011;44257;44.804;10.220;2023-12-20T14:15:06;14.90;;;10.45;;
58468;SDS011;44257;44.804;10.220;2023-12-20T14:17:39;15.57;;;11.35;;
58468;SDS011;44257;44.804;10.220;2023-12-20T14:20:07;15.15;;;11.23;;
58468;SDS011;44257;44.804;10.220;2023-12-20T14:22:34;15.82;;;10.68;;
58468;SDS011;44257;44.804;10.220;2023-12-20T14:25:01;17.77;;;10.65;;
58468;SDS011;44257;44.804;10.220;2023-12-20T14:27:27;16.27;;;10.68;;
58468;SDS011;44257;44.804;10.220;2023-12-20T14:29:53;18.15;;;11.45;;
58468;SDS011;44257;44.804;10.220;2023-12-20T14:32:19;16.15;;;10.25;;
58468;SDS011;44257;44.804;10.220;2023-12-20T14:34:45;14.98;;;11.45;;
58468;SDS011;44257;44.804;10.220;2023-12-20T14:37:12;17.25;;;10.23;;